Racecast

Gabriella Pagan Abreu

Unattached (TX) · - · ODAC · Compare head to head

Athlete ratingi 117.7 2024 TF season ≈ 13:58 5K · top 26% of middle-school girls
Best race 120.5 TF
Races 24
Seasons 2 2024 — 2025

RankedNation #6780·VA #152·Team #2 (3+ races) ?

Rating scale ?
Speed rating — all races

Track & Field

TF speed rating

2025 TF

Unattached (TX) · Grade -

Date Meet Event Result Place Ratingi Difficultyi PR/SR Flags
2025-05-25 HR Hurricanes CAT 5 Invite 800m 2:46.83 1st · 1st on team -3.6%
2025-03-23 adidas Track Nationals 2025 800m 2:47.46 37th · 12th on team -3.6%
2025-02-16 HRH Winter Storm Classic 800m 2:54.07 2nd · 1st on team -1.5%
2025-02-16 HRH Winter Storm Classic 1500m 6:08.2 1st · 1st on team -1.5%
2025-02-01 BWSP Queens and Kings - Meet 3 1500m 6:05.72 1st · 1st on team -1.5%
2025-02-01 BWSP Queens and Kings - Meet 3 800m 2:43.69 2nd · 1st on team -1.5% ★PR SR
2025-01-18 BWSP Queens and Kings - Meet 2 800m 2:53.07 2nd · 1st on team -1.5%
2025-01-18 BWSP Queens and Kings - Meet 2 1500m 6:29.58 2nd · 1st on team -1.5%
2025-01-04 BWSP Queens and Kings - Meet 1 1500m 6:08.59 1st · 1st on team -2.6%
2025-01-04 BWSP Queens and Kings - Meet 1 800m 2:54.93 4th · 2nd on team -2.6%
2024-12-22 Grant Holloway Invite '24 1500m 6:14.93 8th · 1st on team -3.6%
2024-12-22 Grant Holloway Invite '24 800m 2:56.39 9th · 1st on team -3.6%
2024-12-15 VB Oceanfront Invitational 1500m 5:53.75 1st · 1st on team -3.6% ★PR SR
2024-12-15 VB Oceanfront Invitational 800m 2:50.19 3rd · 1st on team -3.6% SR

PR personal record · SR season record · CR course record · CSR course season record · R rating record · RSR rating season record · ★ still standing

2024 TF 113.7

UNATTACHED (TX) · Grade 13

Date Meet Event Result Place Ratingi Difficultyi PR/SR Flags
2024-06-01 VB Flames Invitational 800m 2:48.42 5th · 1st on team 119.6 -2.5%
2024-04-29 Suffolk Middle School Meet #3 800m 2:47.47 1st · 1st on team 120.5 -2.9% PR ★R SR RSR
2024-04-15 Suffolk Middle School Meet 1 800m 2:54.09 1st · 1st on team 118.1 -0.8% R RSR
2024-02-18 HRH Winter Storm Classic 800m 2:53.37 4th · 1st on team 116.2 -2.6% PR R SR RSR
2024-02-03 BWSP Queens and Kings 800m 2:57.23 9th · 1st on team 114.9 -1.5% PR R SR RSR
2024-01-28 2024 Track757 Indoor Invitational 800m 3:04.98 7th · 1st on team 108.2 -3.6%
2024-01-20 BWSP Queens and Kings 800m 2:58.93 3rd · 1st on team 113.8 -1.5% PR R SR RSR
2024-01-06 BWSP Queens and Kings 800m 3:03.45 4th · 1st on team 109.8 -2.6% PR R SR RSR
2023-12-17 2023 Grant Holloway AAU Invitational 400m 1:16.13 52nd · 1st on team -3.6% ★PR SR
2023-12-17 2023 Grant Holloway AAU Invitational 800m 3:16.89 18th · 1st on team 101.8 -3.6% PR R SR RSR

PR personal record · SR season record · CR course record · CSR course season record · R rating record · RSR rating season record · ★ still standing